createdAt,value
2023-01-20T00:01:24.595Z,19.27
2023-01-20T00:03:52.863Z,20.43
2023-01-20T00:06:20.080Z,19.83
2023-01-20T00:08:51.154Z,26.27
2023-01-20T00:11:18.625Z,23.57
2023-01-20T00:13:45.078Z,21.67
2023-01-20T00:16:12.040Z,18.47
2023-01-20T00:18:39.860Z,21.30
2023-01-20T00:21:13.085Z,22.40
2023-01-20T00:23:40.961Z,21.60
2023-01-20T00:26:10.805Z,21.77
2023-01-20T00:28:37.829Z,21.23
2023-01-20T00:31:22.781Z,20.40
2023-01-20T00:33:50.981Z,20.60
2023-01-20T00:36:18.992Z,20.53
2023-01-20T00:38:45.458Z,22.07
2023-01-20T00:41:12.707Z,18.57
2023-01-20T00:43:39.421Z,20.67
2023-01-20T00:46:06.561Z,18.93
2023-01-20T00:48:34.112Z,21.43
2023-01-20T00:51:01.339Z,19.67
2023-01-20T00:53:28.113Z,20.47
2023-01-20T00:55:54.620Z,21.23
2023-01-20T00:58:21.389Z,21.43
2023-01-20T01:00:49.484Z,22.77
2023-01-20T01:03:16.507Z,22.23
2023-01-20T01:05:43.259Z,21.03
2023-01-20T01:08:09.881Z,23.67
2023-01-20T01:10:36.416Z,22.13
2023-01-20T01:13:04.263Z,23.00
2023-01-20T01:15:31.165Z,28.33
2023-01-20T01:17:58.799Z,27.97
2023-01-20T01:20:26.166Z,22.07
2023-01-20T01:22:52.622Z,24.17
2023-01-20T01:25:19.727Z,34.53
2023-01-20T01:27:46.303Z,54.27
2023-01-20T01:30:13.102Z,60.00
2023-01-20T01:32:39.889Z,52.10
2023-01-20T01:35:06.737Z,37.53
2023-01-20T01:37:33.257Z,31.63
2023-01-20T01:39:59.723Z,24.10
2023-01-20T01:42:26.740Z,24.23
2023-01-20T01:45:20.296Z,17.23
2023-01-20T01:47:52.923Z,20.00
2023-01-20T01:50:35.201Z,18.20
2023-01-20T01:53:01.766Z,21.47
2023-01-20T01:55:31.334Z,20.93
2023-01-20T01:57:59.786Z,21.73
2023-01-20T02:00:26.624Z,20.87
2023-01-20T02:02:54.676Z,22.57
2023-01-20T02:05:22.851Z,22.97
2023-01-20T02:07:50.019Z,25.30
2023-01-20T02:10:17.431Z,24.57
2023-01-20T02:12:47.281Z,22.43
2023-01-20T02:15:14.378Z,21.87
2023-01-20T02:18:24.830Z,21.60
2023-01-20T02:21:24.190Z,22.10
2023-01-20T02:24:22.891Z,19.27
2023-01-20T02:27:08.571Z,21.03
2023-01-20T02:30:03.980Z,20.40
2023-01-20T02:32:49.234Z,19.20
2023-01-20T02:35:25.647Z,19.40
2023-01-20T02:38:12.599Z,20.67
2023-01-20T02:40:46.138Z,22.13
2023-01-20T02:43:15.651Z,23.13
2023-01-20T02:45:52.842Z,24.77
2023-01-20T02:48:53.428Z,26.30
2023-01-20T02:55:11.860Z,27.13
2023-01-20T02:57:52.599Z,27.70
2023-01-20T03:00:42.852Z,26.63
2023-01-20T03:03:14.090Z,28.37
2023-01-20T03:05:45.745Z,26.60
2023-01-20T03:08:13.086Z,34.23
2023-01-20T03:10:42.221Z,35.40
2023-01-20T03:13:18.891Z,38.27
2023-01-20T03:16:00.446Z,47.80
2023-01-20T03:18:29.464Z,55.17
2023-01-20T03:20:58.701Z,55.80
2023-01-20T03:23:28.011Z,51.93
2023-01-20T03:25:55.298Z,40.33
2023-01-20T03:28:21.744Z,36.03
2023-01-20T03:30:48.627Z,51.97
2023-01-20T03:33:17.482Z,56.40
2023-01-20T03:35:44.391Z,57.50
2023-01-20T03:38:11.089Z,46.70
2023-01-20T03:40:53.746Z,43.97
2023-01-20T03:43:29.412Z,57.67
2023-01-20T03:46:02.547Z,54.53
2023-01-20T03:48:41.906Z,84.20
2023-01-20T03:51:13.739Z,46.33
2023-01-20T03:53:51.035Z,52.93
2023-01-20T03:56:51.216Z,75.67
2023-01-20T03:59:20.451Z,47.47
2023-01-20T04:01:47.270Z,50.37
2023-01-20T04:04:19.268Z,40.80
2023-01-20T04:06:48.903Z,61.90
2023-01-20T04:09:24.867Z,64.97
2023-01-20T04:11:51.601Z,54.20
2023-01-20T04:14:18.135Z,48.53
2023-01-20T04:16:52.471Z,57.87
2023-01-20T04:19:18.862Z,57.60
2023-01-20T04:22:17.795Z,49.00
2023-01-20T04:24:52.897Z,56.03
2023-01-20T04:27:19.352Z,40.10
2023-01-20T04:29:46.448Z,56.30
2023-01-20T04:32:12.924Z,53.90
2023-01-20T04:34:39.556Z,40.13
2023-01-20T04:37:05.943Z,40.03
2023-01-20T04:39:32.361Z,38.77
2023-01-20T04:41:58.747Z,48.50
2023-01-20T04:44:25.187Z,38.67
2023-01-20T04:46:56.658Z,32.03
2023-01-20T04:49:23.063Z,33.50
2023-01-20T04:51:49.456Z,32.97
2023-01-20T04:54:15.904Z,32.40
2023-01-20T04:56:43.248Z,35.53
2023-01-20T04:59:09.762Z,34.97
2023-01-20T05:01:36.345Z,33.23
2023-01-20T05:04:02.838Z,32.40
2023-01-20T05:06:29.221Z,34.33
2023-01-20T05:08:55.667Z,31.47
2023-01-20T05:11:22.160Z,33.93
2023-01-20T05:13:48.570Z,32.03
2023-01-20T05:16:15.069Z,31.57
2023-01-20T05:18:41.506Z,32.33
2023-01-20T05:21:08.734Z,31.63
2023-01-20T05:23:35.481Z,33.10
2023-01-20T05:26:01.918Z,29.87
2023-01-20T05:28:28.323Z,28.70
2023-01-20T05:30:55.058Z,28.33
2023-01-20T05:33:21.531Z,31.83
2023-01-20T05:35:47.984Z,31.90
2023-01-20T05:38:14.410Z,29.63
2023-01-20T05:40:40.817Z,31.27
2023-01-20T05:43:07.221Z,30.60
2023-01-20T05:45:33.687Z,29.03
2023-01-20T05:48:00.583Z,31.07
2023-01-20T05:50:28.174Z,32.67
2023-01-20T05:52:54.592Z,30.53
2023-01-20T05:55:21.628Z,32.43
2023-01-20T05:57:48.014Z,30.60
2023-01-20T06:00:14.853Z,31.53
2023-01-20T06:02:41.826Z,29.43
2023-01-20T06:05:08.426Z,32.67
2023-01-20T06:07:34.893Z,35.03
2023-01-20T06:10:02.422Z,33.10
2023-01-20T06:12:28.831Z,29.13
2023-01-20T06:14:55.239Z,36.07
2023-01-20T06:17:21.716Z,36.03
2023-01-20T06:19:48.143Z,34.80
2023-01-20T06:22:15.498Z,32.73
2023-01-20T06:24:42.023Z,31.87
2023-01-20T06:27:09.397Z,26.23
2023-01-20T06:29:36.043Z,27.80
2023-01-20T06:32:02.587Z,28.67
2023-01-20T06:34:29.014Z,31.00
2023-01-20T06:36:56.055Z,30.43
2023-01-20T06:39:22.657Z,29.43
2023-01-20T06:41:49.161Z,30.23
2023-01-20T06:44:16.677Z,27.37
2023-01-20T06:46:43.161Z,33.33
2023-01-20T06:49:09.775Z,31.30
2023-01-20T06:51:36.311Z,32.70
2023-01-20T06:54:02.750Z,31.60
2023-01-20T06:56:29.281Z,32.77
2023-01-20T06:58:55.729Z,34.53
2023-01-20T07:01:25.247Z,36.90
2023-01-20T07:03:52.067Z,36.67
2023-01-20T07:06:31.671Z,37.87
2023-01-20T07:08:59.625Z,37.90
2023-01-20T07:11:26.994Z,44.63
2023-01-20T07:13:53.439Z,47.93
2023-01-20T07:16:20.212Z,54.33
2023-01-20T07:18:51.703Z,53.10
2023-01-20T07:21:19.318Z,49.43
2023-01-20T07:23:46.278Z,38.33
2023-01-20T07:26:18.119Z,39.97
2023-01-20T07:28:44.689Z,34.80
2023-01-20T07:31:19.723Z,35.47
2023-01-20T07:33:46.760Z,37.50
2023-01-20T07:36:14.666Z,40.90
2023-01-20T07:38:41.313Z,51.83
2023-01-20T07:41:16.405Z,44.93
2023-01-20T07:43:44.312Z,44.93
2023-01-20T07:46:11.316Z,47.97
2023-01-20T07:48:38.239Z,48.50
2023-01-20T07:51:07.470Z,40.20
2023-01-20T07:53:52.153Z,41.23
2023-01-20T07:56:24.703Z,41.17
2023-01-20T07:58:51.897Z,37.93
2023-01-20T08:01:22.830Z,34.97
2023-01-20T08:03:49.847Z,38.20
2023-01-20T08:06:19.192Z,36.93
2023-01-20T08:08:46.061Z,36.10
2023-01-20T08:11:14.203Z,39.87
2023-01-20T08:13:41.461Z,35.70
2023-01-20T08:16:10.673Z,29.90
2023-01-20T08:18:38.029Z,30.40
2023-01-20T08:21:08.033Z,25.50
2023-01-20T08:23:35.743Z,25.00
2023-01-20T08:26:05.296Z,33.77
2023-01-20T08:28:36.314Z,33.23
2023-01-20T08:31:09.900Z,34.53
2023-01-20T08:33:37.198Z,29.90
2023-01-20T08:36:16.119Z,32.90
2023-01-20T08:38:43.718Z,30.43
2023-01-20T08:41:18.304Z,27.87
2023-01-20T08:43:45.046Z,32.30
2023-01-20T08:46:13.819Z,28.57
2023-01-20T08:48:42.081Z,32.43
2023-01-20T08:51:14.034Z,30.73
2023-01-20T08:53:40.682Z,29.73
2023-01-20T08:56:07.512Z,32.27
2023-01-20T08:58:34.867Z,24.40
2023-01-20T09:01:14.050Z,26.33
2023-01-20T09:03:45.064Z,28.23
2023-01-20T09:06:16.622Z,27.73
2023-01-20T09:08:43.402Z,20.57
2023-01-20T09:11:15.477Z,28.60
2023-01-20T09:13:42.400Z,25.20
2023-01-20T09:16:12.098Z,24.63
2023-01-20T09:18:38.928Z,22.83
2023-01-20T09:21:08.752Z,24.67
2023-01-20T09:23:36.799Z,26.60
2023-01-20T09:26:04.700Z,24.23
2023-01-20T09:28:31.636Z,24.80
2023-01-20T09:30:59.344Z,25.40
2023-01-20T09:33:25.885Z,23.50
2023-01-20T09:35:56.344Z,25.70
2023-01-20T09:38:41.463Z,21.53
2023-01-20T09:41:46.455Z,25.20
2023-01-20T09:44:43.157Z,22.90
2023-01-20T09:47:21.333Z,19.50
2023-01-20T09:50:34.521Z,22.73
2023-01-20T09:53:15.272Z,18.07
2023-01-20T09:55:56.921Z,20.03
2023-01-20T09:58:32.491Z,17.50
2023-01-20T10:01:12.802Z,20.60
2023-01-20T10:03:56.994Z,19.20
2023-01-20T10:06:31.730Z,19.90
2023-01-20T10:09:06.208Z,18.53
2023-01-20T10:11:41.218Z,22.33
2023-01-20T10:14:19.784Z,20.47
2023-01-20T10:17:25.071Z,20.27
2023-01-20T10:19:58.913Z,20.70
2023-01-20T10:22:40.071Z,21.20
2023-01-20T10:25:13.295Z,20.80
2023-01-20T10:27:49.160Z,18.57
2023-01-20T10:30:16.695Z,18.20
2023-01-20T10:32:54.957Z,19.67
2023-01-20T10:35:25.859Z,18.33
2023-01-20T10:37:53.248Z,21.07
2023-01-20T10:40:35.072Z,17.57
2023-01-20T10:43:10.034Z,17.53
2023-01-20T10:45:56.773Z,16.60
2023-01-20T10:49:03.389Z,16.23
2023-01-20T10:51:45.408Z,14.97
2023-01-20T10:54:29.963Z,12.77
2023-01-20T10:57:00.133Z,11.93
2023-01-20T10:59:41.049Z,14.20
2023-01-20T11:02:30.307Z,12.77
2023-01-20T11:05:00.927Z,17.23
2023-01-20T11:07:29.856Z,18.07
2023-01-20T11:09:56.340Z,14.87
2023-01-20T11:12:27.263Z,12.00
2023-01-20T11:15:00.254Z,11.77
2023-01-20T11:17:26.785Z,16.93
2023-01-20T11:19:56.703Z,10.40
2023-01-20T11:22:30.265Z,10.03
2023-01-20T11:24:59.020Z,10.83
2023-01-20T11:27:29.791Z,10.83
2023-01-20T11:30:03.779Z,8.50
2023-01-20T11:32:35.132Z,10.50
2023-01-20T11:35:18.712Z,8.70
2023-01-20T11:37:45.212Z,8.87
2023-01-20T11:40:19.857Z,9.83
2023-01-20T11:42:48.280Z,8.17
2023-01-20T11:45:32.480Z,9.57
2023-01-20T11:48:08.121Z,7.10
2023-01-20T11:50:57.329Z,12.70
2023-01-20T11:53:26.628Z,10.83
2023-01-20T11:55:59.457Z,11.57
2023-01-20T11:58:29.075Z,8.27
2023-01-20T12:01:05.393Z,7.77
2023-01-20T12:03:50.329Z,7.63
2023-01-20T12:06:35.143Z,7.07
2023-01-20T12:09:15.471Z,9.00
2023-01-20T12:11:59.383Z,10.13
2023-01-20T12:14:34.117Z,10.57
2023-01-20T12:17:16.580Z,9.17
2023-01-20T12:20:06.266Z,8.93
2023-01-20T12:22:47.658Z,11.40
2023-01-20T12:25:22.348Z,14.73
2023-01-20T12:27:56.912Z,10.43
2023-01-20T12:30:41.166Z,11.60
2023-01-20T12:33:23.165Z,8.27
2023-01-20T12:36:19.336Z,7.37
2023-01-20T12:39:02.737Z,7.23
2023-01-20T12:41:56.850Z,9.20
2023-01-20T12:44:38.397Z,6.63
2023-01-20T12:47:21.977Z,6.83
2023-01-20T12:50:23.772Z,8.23
2023-01-20T12:53:16.954Z,9.43
2023-01-20T12:56:10.576Z,8.83
2023-01-20T12:59:20.839Z,6.63
2023-01-20T13:02:20.567Z,7.43
2023-01-20T13:04:54.728Z,8.73
2023-01-20T13:07:33.280Z,7.03
2023-01-20T13:10:39.574Z,8.30
2023-01-20T13:13:55.669Z,5.83
2023-01-20T13:16:43.354Z,10.43
2023-01-20T13:19:24.085Z,6.90
2023-01-20T13:22:06.501Z,7.03
2023-01-20T13:24:34.901Z,7.70
2023-01-20T13:27:01.917Z,8.37
2023-01-20T13:29:34.297Z,9.77
2023-01-20T13:32:00.991Z,6.63
2023-01-20T13:34:33.189Z,5.90
2023-01-20T13:37:02.475Z,8.57
2023-01-20T13:39:40.829Z,6.47
2023-01-20T13:42:38.199Z,6.00
2023-01-20T13:45:14.436Z,8.57
2023-01-20T13:47:54.700Z,6.77
2023-01-20T13:50:28.698Z,6.97
2023-01-20T13:52:57.853Z,6.40
2023-01-20T13:55:49.227Z,6.77
2023-01-20T13:58:24.514Z,7.07
2023-01-20T14:01:06.045Z,9.53
2023-01-20T14:03:39.826Z,10.10
2023-01-20T14:06:13.364Z,9.33
2023-01-20T14:08:45.871Z,6.77
2023-01-20T14:11:15.596Z,9.50
2023-01-20T14:13:52.149Z,6.67
2023-01-20T14:16:25.598Z,5.53
2023-01-20T14:18:54.297Z,10.37
2023-01-20T14:21:24.062Z,7.00
2023-01-20T14:23:51.507Z,10.90
2023-01-20T14:26:31.555Z,11.53
2023-01-20T14:29:00.652Z,11.77
2023-01-20T14:31:43.613Z,8.63
2023-01-20T14:34:28.193Z,12.23
2023-01-20T14:36:59.980Z,12.67
2023-01-20T14:39:30.894Z,9.97
2023-01-20T14:42:01.424Z,16.47
2023-01-20T14:44:32.554Z,11.37
2023-01-20T14:47:01.318Z,10.53
2023-01-20T14:49:33.269Z,16.07
2023-01-20T14:52:01.122Z,15.90
2023-01-20T14:54:29.609Z,14.67
2023-01-20T14:56:58.227Z,13.33
2023-01-20T14:59:25.930Z,9.50
2023-01-20T15:02:01.580Z,11.33
2023-01-20T15:04:36.098Z,9.77
2023-01-20T15:07:03.435Z,10.90
2023-01-20T15:09:33.177Z,25.03
2023-01-20T15:12:30.585Z,7.87
2023-01-20T15:15:21.849Z,8.13
2023-01-20T15:18:23.327Z,9.77
2023-01-20T15:20:51.429Z,9.70
2023-01-20T15:23:38.907Z,9.23
2023-01-20T15:26:24.401Z,9.00
2023-01-20T15:28:50.939Z,6.67
2023-01-20T15:31:17.492Z,12.33
2023-01-20T15:33:44.530Z,23.97
2023-01-20T15:36:22.112Z,20.87
2023-01-20T15:38:49.132Z,14.30
2023-01-20T15:41:15.554Z,12.13
2023-01-20T15:43:42.524Z,13.83
2023-01-20T15:46:14.226Z,11.77
2023-01-20T15:48:41.335Z,7.87
2023-01-20T15:51:13.539Z,11.73
2023-01-20T15:53:40.380Z,8.57
2023-01-20T15:56:16.156Z,15.67
2023-01-20T15:58:42.653Z,10.67
2023-01-20T16:01:13.389Z,10.00
2023-01-20T16:03:39.830Z,11.73
2023-01-20T16:06:15.467Z,8.23
2023-01-20T16:08:46.039Z,15.93
2023-01-20T16:11:13.773Z,16.70
2023-01-20T16:13:40.957Z,13.53
2023-01-20T16:16:14.381Z,8.80
2023-01-20T16:18:41.447Z,8.20
2023-01-20T16:21:10.995Z,6.80
2023-01-20T16:23:37.782Z,7.67
2023-01-20T16:26:15.926Z,8.97
2023-01-20T16:28:42.370Z,7.50
2023-01-20T16:31:12.006Z,6.60
2023-01-20T16:33:38.586Z,7.30
2023-01-20T16:36:11.842Z,5.37
2023-01-20T16:38:40.515Z,9.03
2023-01-20T16:44:15.735Z,10.43
2023-01-20T16:46:42.619Z,10.67
2023-01-20T16:49:09.466Z,9.03
2023-01-20T16:51:36.266Z,10.00
2023-01-20T16:54:03.177Z,9.10
2023-01-20T16:56:32.639Z,10.63
2023-01-20T16:59:01.840Z,8.47
2023-01-20T17:01:30.296Z,9.30
2023-01-20T17:04:02.370Z,11.80
2023-01-20T17:06:32.088Z,12.07
2023-01-20T17:09:00.643Z,8.63
2023-01-20T17:11:32.973Z,8.73
2023-01-20T17:14:02.128Z,9.97
2023-01-20T17:16:31.401Z,11.63
2023-01-20T17:19:02.091Z,16.30
2023-01-20T17:21:33.471Z,16.57
2023-01-20T17:24:02.355Z,20.80
2023-01-20T17:26:29.654Z,17.90
2023-01-20T17:28:58.632Z,17.73
2023-01-20T17:31:25.853Z,17.50
2023-01-20T17:33:56.721Z,18.90
2023-01-20T17:36:23.385Z,16.00
2023-01-20T17:38:49.929Z,18.87
2023-01-20T17:41:16.687Z,17.77
2023-01-20T17:43:46.358Z,18.83
2023-01-20T17:46:19.834Z,24.83
2023-01-20T17:48:47.003Z,19.50
2023-01-20T17:51:16.127Z,21.53
2023-01-20T17:53:43.360Z,20.23
2023-01-20T17:56:13.042Z,24.50
2023-01-20T17:58:41.403Z,23.80
2023-01-20T18:01:21.887Z,24.27
2023-01-20T18:03:50.689Z,36.40
2023-01-20T18:06:19.702Z,20.97
2023-01-20T18:08:52.606Z,20.03
2023-01-20T18:11:20.436Z,22.40
2023-01-20T18:13:50.106Z,20.23
2023-01-20T18:16:19.169Z,19.83
2023-01-20T18:18:47.611Z,23.77
2023-01-20T18:21:23.025Z,18.33
2023-01-20T18:23:51.109Z,20.43
2023-01-20T18:26:22.791Z,25.57
2023-01-20T18:28:53.187Z,23.47
2023-01-20T18:31:22.016Z,28.43
2023-01-20T18:33:54.671Z,19.83
2023-01-20T18:36:28.189Z,20.23
2023-01-20T18:39:04.099Z,25.13
2023-01-20T18:41:32.687Z,19.30
2023-01-20T18:44:00.761Z,23.13
2023-01-20T18:46:31.036Z,19.57
2023-01-20T18:48:58.042Z,20.07
2023-01-20T18:51:27.406Z,31.77
2023-01-20T18:53:57.225Z,31.17
2023-01-20T18:56:25.078Z,20.93
2023-01-20T18:58:53.723Z,33.43
2023-01-20T19:01:23.992Z,59.80
2023-01-20T19:03:52.245Z,23.67
2023-01-20T19:06:27.978Z,24.63
2023-01-20T19:08:56.676Z,21.20
2023-01-20T19:11:29.327Z,26.03
2023-01-20T19:13:56.177Z,23.53
2023-01-20T19:16:28.195Z,16.80
2023-01-20T19:18:57.390Z,17.70
2023-01-20T19:21:25.601Z,21.47
2023-01-20T19:23:54.663Z,18.87
2023-01-20T19:26:22.752Z,18.90
2023-01-20T19:28:56.575Z,16.70
2023-01-20T19:31:23.764Z,20.13
2023-01-20T19:33:50.627Z,17.60
2023-01-20T19:36:19.196Z,17.60
2023-01-20T19:38:45.835Z,18.83
2023-01-20T19:41:14.879Z,25.93
2023-01-20T19:43:42.385Z,20.77
2023-01-20T19:46:14.987Z,18.93
2023-01-20T19:48:42.412Z,19.63
2023-01-20T19:51:12.400Z,21.50
2023-01-20T19:53:40.184Z,41.23
2023-01-20T19:56:12.952Z,29.03
2023-01-20T19:58:40.277Z,16.27
2023-01-20T20:01:13.170Z,19.10
2023-01-20T20:03:40.307Z,30.97
2023-01-20T20:06:08.481Z,30.70
2023-01-20T20:08:37.974Z,24.70
2023-01-20T20:11:04.522Z,22.10
2023-01-20T20:13:31.018Z,17.60
2023-01-20T20:16:04.761Z,14.93
2023-01-20T20:18:32.061Z,20.43
2023-01-20T20:20:58.941Z,33.73
2023-01-20T20:23:25.848Z,21.57
2023-01-20T20:25:56.232Z,19.07
2023-01-20T20:28:28.125Z,33.67
2023-01-20T20:30:55.484Z,23.07
2023-01-20T20:33:25.298Z,23.63
2023-01-20T20:35:51.836Z,14.37
2023-01-20T20:38:18.731Z,21.77
2023-01-20T20:40:45.221Z,19.60
2023-01-20T20:43:11.789Z,18.60
2023-01-20T20:45:38.538Z,19.80
2023-01-20T20:48:05.753Z,46.67
2023-01-20T20:50:32.404Z,22.67
2023-01-20T20:52:59.145Z,16.77
2023-01-20T20:55:26.333Z,20.07
2023-01-20T20:57:52.967Z,16.67
2023-01-20T21:00:23.431Z,19.50
2023-01-20T21:02:50.376Z,42.13
2023-01-20T21:05:18.863Z,60.37
2023-01-20T21:07:45.863Z,73.40
2023-01-20T21:10:14.059Z,70.40
2023-01-20T21:12:40.983Z,54.60
2023-01-20T21:15:08.786Z,26.97
2023-01-20T21:17:35.293Z,24.60
2023-01-20T21:20:02.098Z,20.60
2023-01-20T21:22:28.694Z,21.87
2023-01-20T21:24:55.237Z,17.30
2023-01-20T21:27:21.879Z,18.00
2023-01-20T21:29:48.329Z,17.77
2023-01-20T21:32:15.826Z,19.07
2023-01-20T21:34:42.389Z,16.53
2023-01-20T21:37:09.049Z,16.63
2023-01-20T21:39:35.589Z,16.53
2023-01-20T21:42:02.130Z,18.77
2023-01-20T21:44:28.672Z,19.90
2023-01-20T21:47:10.480Z,21.60
2023-01-20T21:49:55.712Z,21.10
2023-01-20T21:52:42.262Z,27.60
2023-01-20T21:55:11.950Z,23.97
2023-01-20T21:57:38.883Z,20.63
2023-01-20T22:00:08.955Z,22.03
2023-01-20T22:02:39.494Z,20.37
2023-01-20T22:05:06.881Z,20.73
2023-01-20T22:07:33.459Z,20.17
2023-01-20T22:10:00.049Z,23.73
2023-01-20T22:12:26.693Z,18.60
2023-01-20T22:14:53.329Z,21.40
2023-01-20T22:17:19.834Z,20.17
2023-01-20T22:19:46.380Z,20.00
2023-01-20T22:22:15.092Z,22.67
2023-01-20T22:24:42.039Z,21.47
2023-01-20T22:27:08.725Z,23.43
2023-01-20T22:29:35.338Z,21.97
2023-01-20T22:32:04.008Z,38.90
2023-01-20T22:34:30.687Z,105.63
2023-01-20T22:36:57.946Z,93.03
2023-01-20T22:39:24.536Z,32.90
2023-01-20T22:41:51.131Z,25.53
2023-01-20T22:44:17.722Z,21.20
2023-01-20T22:46:44.279Z,20.83
2023-01-20T22:49:11.465Z,15.23
2023-01-20T22:51:38.102Z,15.83
2023-01-20T22:54:04.934Z,13.90
2023-01-20T22:56:32.184Z,14.57
2023-01-20T22:58:59.540Z,14.33
2023-01-20T23:01:32.378Z,16.13
2023-01-20T23:04:01.564Z,14.90
2023-01-20T23:06:30.601Z,13.90
2023-01-20T23:08:57.086Z,13.53
2023-01-20T23:11:23.902Z,14.10
2023-01-20T23:13:51.900Z,13.37
2023-01-20T23:16:22.733Z,13.27
2023-01-20T23:18:50.997Z,16.23
2023-01-20T23:21:18.213Z,16.67
2023-01-20T23:23:45.135Z,14.40
2023-01-20T23:26:18.887Z,12.17
2023-01-20T23:28:46.647Z,13.53
2023-01-20T23:31:17.583Z,11.73
2023-01-20T23:33:44.733Z,13.43
2023-01-20T23:36:23.730Z,11.83
2023-01-20T23:38:52.468Z,11.43
2023-01-20T23:41:20.008Z,11.77
2023-01-20T23:43:46.545Z,11.27
2023-01-20T23:46:13.181Z,10.97
2023-01-20T23:48:40.088Z,12.37
2023-01-20T23:51:07.473Z,12.50
2023-01-20T23:53:38.488Z,9.27
2023-01-20T23:56:09.876Z,10.83
2023-01-20T23:58:36.456Z,11.27
